.
WxDataArchive / Data Records for 2006-11-14
2006-11-13 November 2006 2006-11-15

Data Records for Tuesday, 14 November 2006

Time	Temp	Chill	HIndex	Humid	Dewpt	 Wind 	HiWind	WindDir	Rain 	Barom 
-----	----	-----	------	-----	-----	------	------	-------	-----	----- 
00:00	39.2	39.2	39.2	84	34.8	0	0	---	0.00	29.963 
00:05	39.2	39.2	39.2	84	34.8	0	0	---	0.00	29.963 
00:10	39.2	39.2	39.2	84	34.8	0	0	---	0.00	29.963 
00:15	39.2	39.2	39.2	84	34.8	0	0	---	0.00	29.964 
00:20	39.2	39.2	39.2	84	34.8	0	0	---	0.00	29.964 
00:25	39.2	39.2	39.2	84	34.8	0	0	---	0.00	29.964 
00:30	39.2	39.2	39.2	84	34.8	0	0	---	0.00	29.967 
00:35	39.2	39.2	39.2	84	34.8	0	0	---	0.00	29.967 
00:40	39.2	39.2	39.2	84	34.8	0	0	---	0.00	29.967 
00:45	39.2	39.2	39.2	84	34.8	0	0	---	0.00	29.962 
00:50	39.2	39.2	39.2	84	34.8	0	0	---	0.00	29.962 
00:55	39.1	39.1	39.1	84	34.7	0	0	---	0.00	29.962 
01:00	39.1	39.1	39.1	84	34.7	0	0	---	0.00	29.960 
01:05	39.1	39.1	39.1	85	35.0	0	1	248	0.00	29.960 
01:10	39.1	39.1	39.1	84	34.7	0	0	---	0.00	29.960 
01:15	39.1	39.1	39.1	85	35.0	0	0	---	0.00	29.957 
01:20	39.1	39.1	39.1	85	35.0	0	0	---	0.00	29.957 
01:25	39.1	39.1	39.1	85	35.0	0	0	---	0.00	29.957 
01:30	39.1	39.1	39.1	85	35.0	0	1	248	0.00	29.960 
01:35	39.1	39.1	39.1	85	35.0	0	1	248	0.00	29.960 
01:40	39.1	39.1	39.1	85	35.0	0	0	---	0.00	29.960 
01:45	39.1	39.1	39.1	86	35.3	0	0	---	0.00	29.952 
01:50	38.9	38.9	38.9	86	35.1	0	1	248	0.00	29.952 
01:55	38.9	38.9	38.9	87	35.4	0	1	248	0.00	29.952 
02:00	38.8	38.8	38.8	87	35.3	0	1	248	0.00	29.954 
02:05	38.8	38.8	38.8	88	35.6	0	0	---	0.00	29.954 
02:10	38.6	38.6	38.6	88	35.4	0	0	---	0.00	29.954 
02:15	38.5	38.5	38.5	88	35.3	0	0	---	0.00	29.954 
02:20	38.5	38.5	38.5	88	35.3	0	1	248	0.00	29.954 
02:25	38.5	38.5	38.5	89	35.5	0	0	---	0.00	29.954 
02:30	38.5	38.5	38.5	89	35.5	0	1	248	0.00	29.951 
02:35	38.5	38.5	38.5	89	35.5	0	0	---	0.00	29.951 
02:40	38.5	38.5	38.5	89	35.5	0	0	---	0.00	29.951 
02:45	38.5	38.5	38.5	89	35.5	0	0	---	0.00	29.960 
02:50	38.3	38.3	38.3	89	35.3	0	0	---	0.00	29.960 
02:55	38.3	38.3	38.3	88	35.1	0	1	248	0.00	29.960 
03:00	38.3	38.3	38.3	87	34.8	0	0	---	0.00	29.957 
03:05	38.3	38.3	38.3	87	34.8	0	1	248	0.00	29.957 
03:10	38.3	38.3	38.3	87	34.8	0	0	---	0.00	29.957 
03:15	38.5	38.5	38.5	88	35.3	0	1	248	0.00	29.949 
03:20	38.5	38.5	38.5	88	35.3	0	1	248	0.00	29.949 
03:25	38.5	38.5	38.5	88	35.3	0	0	---	0.00	29.949 
03:30	38.5	38.5	38.5	88	35.3	0	1	248	0.00	29.936 
03:35	38.5	38.5	38.5	87	35.0	0	0	---	0.00	29.936 
03:40	38.5	38.5	38.5	87	35.0	0	0	---	0.00	29.936 
03:45	38.5	38.5	38.5	87	35.0	0	0	---	0.00	29.939 
03:50	38.5	38.5	38.5	87	35.0	0	1	248	0.00	29.939 
03:55	38.5	38.5	38.5	87	35.0	0	0	---	0.00	29.939 
04:00	38.5	38.5	38.5	88	35.3	0	0	---	0.00	29.945 
04:05	38.5	38.5	38.5	87	35.0	0	0	---	0.00	29.945 
04:10	38.6	38.6	38.6	88	35.4	0	0	---	0.00	29.945 
04:15	38.6	38.6	38.6	88	35.4	0	1	248	0.00	29.938 
04:20	38.6	38.6	38.6	88	35.4	0	1	248	0.00	29.938 
04:25	38.6	38.6	38.6	88	35.4	0	0	---	0.00	29.938 
04:30	38.6	38.6	38.6	88	35.4	0	0	---	0.00	29.948 
04:35	38.6	38.6	38.6	88	35.4	0	0	---	0.00	29.948 
04:40	38.6	38.6	38.6	88	35.4	0	0	---	0.00	29.948 
04:45	38.6	38.6	38.6	88	35.4	0	0	---	0.00	29.942 
04:50	38.6	38.6	38.6	88	35.4	0	1	248	0.00	29.942 
04:55	38.6	38.6	38.6	88	35.4	0	1	248	0.00	29.942 
05:00	38.6	38.6	38.6	88	35.4	0	1	248	0.00	29.943 
05:05	38.8	38.8	38.8	88	35.6	0	1	248	0.00	29.943 
05:10	38.6	38.6	38.6	88	35.4	0	1	248	0.00	29.943 
05:15	38.6	38.6	38.6	88	35.4	0	1	248	0.00	29.938 
05:20	38.6	38.6	38.6	88	35.4	0	1	248	0.00	29.938 
05:25	38.5	38.5	38.5	88	35.3	0	1	248	0.00	29.938 
05:30	38.5	38.5	38.5	88	35.3	0	2	248	0.00	29.929 
05:35	38.5	38.5	38.5	88	35.3	0	2	248	0.00	29.929 
05:40	38.5	38.5	38.5	88	35.3	0	0	---	0.00	29.929 
05:45	38.5	38.5	38.5	88	35.3	0	0	---	0.00	29.931 
05:50	38.5	38.5	38.5	88	35.3	0	1	248	0.00	29.931 
05:55	38.5	38.5	38.5	88	35.3	0	0	---	0.00	29.931 
06:00	38.5	38.5	38.5	88	35.3	0	1	248	0.00	29.935 
06:05	38.5	38.5	38.5	88	35.3	0	0	---	0.00	29.935 
06:10	38.5	38.5	38.5	89	35.5	0	1	248	0.00	29.935 
06:15	38.5	38.5	38.5	89	35.5	0	0	---	0.00	29.929 
06:20	38.5	38.5	38.5	89	35.5	0	1	248	0.00	29.929 
06:25	38.5	38.5	38.5	89	35.5	0	0	---	0.00	29.929 
06:30	38.5	38.5	38.5	89	35.5	0	0	---	0.00	29.924 
06:35	38.5	38.5	38.5	89	35.5	0	0	---	0.00	29.924 
06:40	38.5	38.5	38.5	89	35.5	0	1	248	0.00	29.924 
06:45	38.5	38.5	38.5	89	35.5	0	0	---	0.00	29.921 
06:50	38.6	38.6	38.6	89	35.6	0	1	248	0.00	29.921 
06:55	38.6	38.6	38.6	89	35.6	0	0	---	0.00	29.921 
07:00	38.6	38.6	38.6	89	35.6	0	0	---	0.00	29.922 
07:05	38.6	38.6	38.6	89	35.6	0	1	248	0.00	29.922 
07:10	38.6	38.6	38.6	89	35.6	0	1	248	0.00	29.922 
07:15	38.6	38.6	38.6	89	35.6	0	1	248	0.00	29.923 
07:20	38.6	38.6	38.6	89	35.6	0	0	---	0.00	29.923 
07:25	38.6	38.6	38.6	89	35.6	0	1	248	0.00	29.923 
07:30	38.6	38.6	38.6	89	35.6	0	1	248	0.00	29.921 
07:35	38.6	38.6	38.6	89	35.6	0	1	248	0.00	29.921 
07:40	38.6	38.6	38.6	89	35.6	0	1	248	0.00	29.921 
07:45	38.6	38.6	38.6	89	35.6	0	1	248	0.00	29.922 
07:50	38.6	38.6	38.6	89	35.6	0	0	---	0.00	29.922 
07:55	38.6	38.6	38.6	89	35.6	0	0	---	0.00	29.922 
08:00	38.8	38.8	38.8	89	35.8	0	1	248	0.00	29.924 
08:05	38.8	38.8	38.8	89	35.8	0	2	248	0.00	29.924 
08:10	38.8	38.8	38.8	89	35.8	0	1	248	0.00	29.924 
08:15	38.8	38.8	38.8	88	35.6	0	2	248	0.00	29.922 
08:20	38.9	38.9	38.9	88	35.7	0	3	112	0.00	29.922 
08:25	38.9	38.9	38.9	88	35.7	1	4	112	0.00	29.922 
08:30	38.9	38.9	38.9	88	35.7	2	5	90	0.00	29.895 
08:35	39.1	39.1	39.1	88	35.9	1	2	112	0.00	29.895 
08:40	39.1	39.1	39.1	86	35.3	2	4	112	0.00	29.895 
08:45	39.2	39.2	39.2	87	35.7	0	4	112	0.00	29.904 
08:50	39.3	39.3	39.3	86	35.5	2	4	112	0.00	29.904 
08:55	39.5	39.5	39.5	86	35.7	1	4	90	0.00	29.904 
09:00	39.5	39.5	39.5	85	35.4	1	3	112	0.00	29.906 
09:05	39.6	39.6	39.6	85	35.5	0	1	112	0.00	29.906 
09:10	39.8	39.8	39.8	85	35.7	0	2	112	0.00	29.906 
09:15	39.9	39.9	39.9	85	35.8	0	2	112	0.00	29.904 
09:20	40.1	40.1	40.1	84	35.7	1	4	112	0.00	29.904 
09:25	40.2	40.2	40.2	84	35.8	1	2	112	0.00	29.904 
09:30	40.3	40.3	40.3	84	35.9	1	2	112	0.00	29.902 
09:35	40.5	40.5	40.5	83	35.8	0	1	112	0.00	29.902 
09:40	40.6	40.6	40.6	83	35.8	0	2	112	0.00	29.902 
09:45	40.8	40.8	40.8	83	36.0	0	2	112	0.00	29.899 
09:50	40.8	40.8	40.8	83	36.0	0	2	112	0.00	29.899 
09:55	40.9	40.9	40.9	82	35.8	1	3	112	0.00	29.899 
10:00	40.8	40.8	40.8	82	35.7	1	3	90	0.00	29.897 
10:05	40.9	40.9	40.9	82	35.8	1	3	135	0.00	29.897 
10:10	41.1	41.1	41.1	82	36.0	1	2	135	0.00	29.897 
10:15	41.1	41.1	41.1	81	35.7	1	4	90	0.00	29.892 
10:20	41.2	41.2	41.2	81	35.8	1	3	90	0.00	29.892 
10:25	41.2	41.2	41.2	81	35.8	1	3	135	0.00	29.892 
10:30	41.2	41.2	41.2	81	35.8	1	4	90	0.00	29.892 
10:35	41.2	41.2	41.2	81	35.8	1	2	135	0.00	29.892 
10:40	41.3	41.3	41.3	81	35.9	0	2	90	0.00	29.892 
10:45	41.3	41.3	41.3	81	35.9	1	2	45	0.00	29.894 
10:50	41.5	41.5	41.5	81	36.1	0	1	45	0.00	29.894 
10:55	41.5	41.5	41.5	81	36.1	1	2	68	0.00	29.894 
11:00	41.6	41.6	41.6	80	35.9	1	3	112	0.00	29.889 
11:05	41.6	41.6	41.6	81	36.2	0	2	112	0.00	29.889 
11:10	41.6	41.6	41.6	81	36.2	0	1	112	0.00	29.889 
11:15	41.6	41.6	41.6	81	36.2	0	1	112	0.00	29.889 
11:20	41.6	41.6	41.6	81	36.2	1	2	225	0.00	29.889 
11:25	41.5	41.5	41.5	80	35.8	1	3	90	0.00	29.889 
11:30	41.5	41.5	41.5	80	35.8	1	3	90	0.00	29.883 
11:35	41.5	41.5	41.5	81	36.1	0	2	112	0.00	29.883 
11:40	41.5	41.5	41.5	80	35.8	1	3	112	0.00	29.883 
11:45	41.6	41.6	41.6	81	36.2	0	2	135	0.00	29.882 
11:50	41.6	41.6	41.6	81	36.2	1	3	158	0.00	29.882 
11:55	41.6	41.6	41.6	81	36.2	1	4	112	0.00	29.882 
12:00	41.6	41.6	41.6	81	36.2	0	2	112	0.00	29.873 
12:05	41.6	41.6	41.6	81	36.2	0	2	112	0.00	29.873 
12:10	41.8	41.8	41.8	81	36.4	0	3	90	0.00	29.873 
12:15	41.8	41.8	41.8	80	36.1	1	2	202	0.00	29.870 
12:20	41.8	41.8	41.8	80	36.1	0	2	180	0.00	29.870 
12:25	41.9	41.9	41.9	80	36.2	0	1	180	0.00	29.870 
12:30	41.9	41.9	41.9	80	36.2	0	1	180	0.00	29.856 
12:35	41.9	41.9	41.9	80	36.2	0	2	135	0.00	29.856 
12:40	41.9	41.9	41.9	81	36.5	0	1	135	0.00	29.856 
12:45	41.9	41.9	41.9	81	36.5	0	1	135	0.00	29.848 
12:50	42.1	42.1	42.1	80	36.4	0	1	135	0.00	29.848 
12:55	42.1	42.1	42.1	80	36.4	0	2	135	0.00	29.848 
13:00	42.1	42.1	42.1	80	36.4	0	2	202	0.00	29.839 
13:05	42.1	42.1	42.1	80	36.4	0	2	225	0.00	29.839 
13:10	42.1	42.1	42.1	80	36.4	0	2	225	0.00	29.839 
13:15	42.1	42.1	42.1	80	36.4	1	3	225	0.00	29.826 
13:20	42.1	42.1	42.1	80	36.4	1	3	112	0.00	29.826 
13:25	42.2	42.2	42.2	80	36.5	3	6	112	0.00	29.826 
13:30	42.3	42.3	42.3	79	36.3	2	5	112	0.00	29.809 
13:35	42.6	42.6	42.6	79	36.6	2	5	112	0.00	29.809 
13:40	42.9	42.9	42.9	79	36.8	1	3	90	0.00	29.809 
13:45	43.1	43.1	43.1	79	37.0	2	5	90	0.00	29.808 
13:50	43.1	43.1	43.1	78	36.7	2	6	112	0.00	29.808 
13:55	43.2	43.2	43.2	79	37.1	1	4	112	0.00	29.808 
14:00	43.5	43.5	43.5	77	36.8	1	3	112	0.00	29.816 
14:05	43.5	43.5	43.5	77	36.8	2	4	112	0.00	29.816 
14:10	43.8	43.8	43.8	77	37.1	1	3	90	0.00	29.816 
14:15	43.9	43.9	43.9	76	36.8	2	5	90	0.00	29.807 
14:20	43.9	43.9	43.9	77	37.2	1	3	112	0.00	29.807 
14:25	43.8	43.8	43.8	77	37.1	2	5	90	0.00	29.807 
14:30	43.6	43.6	43.6	77	36.9	1	3	90	0.00	29.803 
14:35	43.5	43.5	43.5	77	36.8	1	5	112	0.00	29.803 
14:40	43.5	43.5	43.5	77	36.8	2	6	112	0.00	29.803 
14:45	43.3	43.3	43.3	78	36.9	3	7	112	0.00	29.794 
14:50	43.3	43.3	43.3	77	36.6	2	5	112	0.00	29.794 
14:55	43.5	43.5	43.5	77	36.8	1	3	292	0.00	29.794 
15:00	43.6	43.6	43.6	77	36.9	1	2	135	0.00	29.819 
15:05	43.6	43.6	43.6	77	36.9	1	4	135	0.00	29.819 
15:10	43.6	43.6	43.6	77	36.9	1	4	68	0.00	29.819 
15:15	43.5	43.5	43.5	77	36.8	1	3	90	0.00	29.818 
15:20	43.5	43.5	43.5	77	36.8	1	3	112	0.00	29.818 
15:25	43.5	43.5	43.5	78	37.1	1	3	135	0.00	29.818 
15:30	43.6	43.6	43.6	78	37.2	1	2	112	0.00	29.808 
15:35	43.6	43.6	43.6	78	37.2	1	3	112	0.00	29.808 
15:40	43.6	43.6	43.6	78	37.2	1	2	135	0.00	29.808 
15:45	43.8	43.8	43.8	78	37.4	0	1	135	0.00	29.807 
15:50	43.9	43.9	43.9	78	37.5	1	3	135	0.00	29.807 
15:55	43.9	43.9	43.9	77	37.2	1	2	135	0.00	29.807 
16:00	43.9	43.9	43.9	77	37.2	0	1	135	0.00	29.806 
16:05	43.9	43.9	43.9	78	37.5	0	2	135	0.00	29.806 
16:10	43.8	43.8	43.8	77	37.1	1	4	90	0.00	29.806 
16:15	43.8	43.8	43.8	78	37.4	1	3	112	0.00	29.804 
16:20	43.8	43.8	43.8	77	37.1	1	3	112	0.00	29.804 
16:25	43.8	43.8	43.8	78	37.4	0	2	135	0.00	29.804 
16:30	43.8	43.8	43.8	78	37.4	0	1	135	0.00	29.806 
16:35	43.8	43.8	43.8	77	37.1	0	2	135	0.00	29.806 
16:40	43.8	43.8	43.8	77	37.1	0	1	135	0.00	29.806 
16:45	43.8	43.8	43.8	78	37.4	0	3	135	0.00	29.807 
16:50	43.8	43.8	43.8	78	37.4	0	1	135	0.00	29.807 
16:55	43.8	43.8	43.8	78	37.4	0	1	135	0.00	29.807 
17:00	43.8	43.8	43.8	77	37.1	0	2	135	0.00	29.812 
17:05	43.8	43.8	43.8	77	37.1	0	1	135	0.00	29.812 
17:10	43.8	43.8	43.8	78	37.4	0	2	135	0.00	29.812 
17:15	43.8	43.8	43.8	77	37.1	1	3	135	0.00	29.811 
17:20	43.6	43.6	43.6	78	37.2	0	2	135	0.00	29.811 
17:25	43.6	43.6	43.6	78	37.2	1	2	135	0.00	29.811 
17:30	43.6	43.6	43.6	78	37.2	0	1	135	0.00	29.805 
17:35	43.5	43.5	43.5	78	37.1	0	2	135	0.00	29.805 
17:40	43.5	43.5	43.5	78	37.1	0	2	135	0.00	29.805 
17:45	43.3	43.3	43.3	78	36.9	1	3	68	0.00	29.806 
17:50	43.3	43.3	43.3	79	37.2	0	2	68	0.00	29.806 
17:55	43.2	43.2	43.2	79	37.1	0	1	68	0.00	29.806 
18:00	43.1	43.1	43.1	79	37.0	0	1	68	0.00	29.810 
18:05	43.1	43.1	43.1	80	37.4	0	1	68	0.00	29.810 
18:10	42.9	42.9	42.9	80	37.2	0	2	68	0.00	29.810 
18:15	42.8	42.8	42.8	80	37.1	0	1	68	0.00	29.810 
18:20	42.6	42.6	42.6	80	36.9	0	1	68	0.00	29.810 
18:25	42.6	42.6	42.6	81	37.2	0	1	68	0.00	29.810 
18:30	42.5	42.5	42.5	81	37.1	0	1	68	0.00	29.816 
18:35	42.5	42.5	42.5	81	37.1	0	0	---	0.00	29.816 
18:40	42.3	42.3	42.3	81	36.9	0	0	---	0.00	29.816 
18:45	42.1	42.1	42.1	81	36.7	0	0	---	0.00	29.816 
18:50	41.9	41.9	41.9	82	36.8	0	0	---	0.00	29.816 
18:55	41.8	41.8	41.8	82	36.7	0	0	---	0.00	29.816 
19:00	41.6	41.6	41.6	83	36.8	0	0	---	0.00	29.815 
19:05	41.5	41.5	41.5	83	36.7	0	0	---	0.00	29.815 
19:10	41.5	41.5	41.5	83	36.7	0	0	---	0.00	29.815 
19:15	41.3	41.3	41.3	84	36.8	0	1	68	0.00	29.809 
19:20	41.3	41.3	41.3	84	36.8	0	1	68	0.00	29.809 
19:25	41.5	41.5	41.5	83	36.7	0	2	68	0.00	29.809 
19:30	41.6	41.6	41.6	83	36.8	0	1	68	0.00	29.809 
19:35	41.6	41.6	41.6	83	36.8	0	1	68	0.00	29.809 
19:40	41.6	41.6	41.6	83	36.8	0	1	68	0.00	29.809 
19:45	41.6	41.6	41.6	83	36.8	0	0	---	0.00	29.816 
19:50	41.5	41.5	41.5	83	36.7	0	1	68	0.00	29.816 
19:55	41.3	41.3	41.3	84	36.8	0	0	---	0.00	29.816 
20:00	41.3	41.3	41.3	84	36.8	0	0	---	0.00	29.822 
20:05	41.2	41.2	41.2	84	36.7	0	0	---	0.00	29.822 
20:10	41.2	41.2	41.2	84	36.7	0	1	68	0.00	29.822 
20:15	41.2	41.2	41.2	85	37.0	0	1	68	0.00	29.814 
20:20	41.2	41.2	41.2	84	36.7	0	2	68	0.00	29.814 
20:25	41.3	41.3	41.3	84	36.8	1	2	68	0.00	29.814 
20:30	41.3	41.3	41.3	84	36.8	0	2	68	0.00	29.812 
20:35	41.5	41.5	41.5	84	37.0	1	2	68	0.00	29.812 
20:40	41.5	41.5	41.5	84	37.0	1	2	68	0.00	29.812 
20:45	41.5	41.5	41.5	83	36.7	0	2	68	0.00	29.814 
20:50	41.5	41.5	41.5	84	37.0	0	1	68	0.00	29.814 
20:55	41.5	41.5	41.5	84	37.0	0	3	90	0.00	29.814 
21:00	41.3	41.3	41.3	84	36.8	1	2	90	0.00	29.820 
21:05	41.3	41.3	41.3	84	36.8	0	2	90	0.00	29.820 
21:10	41.3	41.3	41.3	84	36.8	1	2	90	0.00	29.820 
21:15	41.3	41.3	41.3	84	36.8	1	2	90	0.00	29.816 
21:20	41.3	41.3	41.3	84	36.8	1	2	90	0.00	29.816 
21:25	41.3	41.3	41.3	84	36.8	1	2	90	0.00	29.816 
21:30	41.3	41.3	41.3	84	36.8	1	2	90	0.00	29.818 
21:35	41.3	41.3	41.3	83	36.5	1	3	90	0.00	29.818 
21:40	41.3	41.3	41.3	83	36.5	1	3	90	0.00	29.818 
21:45	41.3	41.3	41.3	84	36.8	0	2	90	0.00	29.818 
21:50	41.3	41.3	41.3	84	36.8	0	1	90	0.00	29.818 
21:55	41.3	41.3	41.3	84	36.8	0	1	90	0.00	29.818 
22:00	41.2	41.2	41.2	84	36.7	0	2	90	0.00	29.822 
22:05	41.2	41.2	41.2	84	36.7	1	2	90	0.00	29.822 
22:10	41.2	41.2	41.2	84	36.7	1	3	90	0.00	29.822 
22:15	41.1	41.1	41.1	85	36.9	1	3	90	0.00	29.817 
22:20	40.9	40.9	40.9	86	37.0	1	3	90	0.00	29.817 
22:25	40.8	40.8	40.8	86	36.9	0	2	90	0.00	29.817 
22:30	40.6	40.6	40.6	87	37.0	0	2	90	0.00	29.819 
22:35	40.6	40.6	40.6	87	37.0	1	3	90	0.00	29.819 
22:40	40.5	40.5	40.5	87	36.9	1	2	90	0.00	29.819 
22:45	40.5	40.5	40.5	87	36.9	1	2	90	0.00	29.813 
22:50	40.3	40.3	40.3	88	37.0	1	2	90	0.00	29.813 
22:55	40.3	40.3	40.3	87	36.7	1	3	90	0.00	29.813 
23:00	40.3	40.3	40.3	87	36.7	1	2	90	0.00	29.815 
23:05	40.2	40.2	40.2	87	36.6	1	3	90	0.00	29.815 
23:10	40.1	40.1	40.1	88	36.8	1	3	90	0.00	29.815 
23:15	40.1	40.1	40.1	88	36.8	1	3	90	0.00	29.813 
23:20	40.1	40.1	40.1	88	36.8	1	3	90	0.00	29.813 
23:25	40.1	40.1	40.1	88	36.8	1	3	90	0.00	29.813 
23:30	40.2	40.2	40.2	88	36.9	1	3	90	0.00	29.819 
23:35	40.2	40.2	40.2	87	36.6	1	4	90	0.00	29.819 
23:40	40.2	40.2	40.2	87	36.6	1	3	112	0.00	29.819 
23:45	40.2	40.2	40.2	87	36.6	1	2	112	0.00	29.822 
23:50	40.2	40.2	40.2	87	36.6	1	3	112	0.00	29.822 
23:55	40.2	40.2	40.2	88	36.9	1	2	112	0.00	29.822 

CoCoRaHS
IN-AL-39
A2 Web Hosting
Creative Commons License
GoDaddy
Look for:

loaded 2017-12-13 02:47:35 • last modified 2010-11-18 10:43:29
Privacy PolicyDisclaimer
• wx.awcolley.com is powered by PmWiki v.2002016 •
• all content (unless otherwise noted) © 2017 A W Colley